This is the latest recevied weather packets stored in our database for station/object N1ICS-1. If no packets are shown the sender has not sent any weather packets the latest 10 day(s).
| Time | Temp. | Humidity | Pressure | Rain* | Wind** | Luminosity | Snow |
|---|---|---|---|---|---|---|---|
| 1777932003 | 24.44° C | 47% | 1004.9 hPa | 0 mm | - | 361 W/m² | - |
| 1777931702 | 24.44° C | 47% | 1004.6 hPa | 0 mm | - | 382 W/m² | - |
| 1777931402 | 24.44° C | 47% | 1004.7 hPa | 0 mm | - | 402 W/m² | - |
| 1777931102 | 24.44° C | 47% | 1004.8 hPa | 0 mm | - | 418 W/m² | - |
| 1777930802 | 24.44° C | 47% | 1004.7 hPa | 0 mm | - | 432 W/m² | - |
| 1777930502 | 24.44° C | 47% | 1004.8 hPa | 0 mm | - | 457 W/m² | - |
| 1777930202 | 24.44° C | 47% | 1004.8 hPa | 0 mm | - | 491 W/m² | - |
| 1777929901 | 23.89° C | 49% | 1004.8 hPa | 0 mm | - | 557 W/m² | - |
| 1777929602 | 25° C | 47% | 1004.9 hPa | 0 mm | - | 585 W/m² | - |
| 1777929302 | 25° C | 47% | 1004.7 hPa | 0 mm | - | 507 W/m² | - |
| 1777929002 | 24.44° C | 49% | 1004.7 hPa | 0 mm | - | 571 W/m² | - |
| 1777928702 | 25° C | 46% | 1004.6 hPa | 0 mm | - | 590 W/m² | - |
| 1777928403 | 24.44° C | 48% | 1004.8 hPa | 0 mm | - | 613 W/m² | - |
| 1777928102 | 24.44° C | 47% | 1004.9 hPa | 0 mm | - | 552 W/m² | - |
| 1777927802 | 24.44° C | 47% | 1004.8 hPa | 0 mm | - | 649 W/m² | - |
| 1777927502 | 25° C | 46% | 1004.7 hPa | 0 mm | - | 657 W/m² | - |
| 1777927202 | 25° C | 46% | 1004.8 hPa | 0 mm | - | 685 W/m² | - |
| 1777926901 | 25° C | 47% | 1004.8 hPa | 0 mm | - | 707 W/m² | - |
| 1777926601 | 25° C | 48% | 1004.8 hPa | 0 mm | - | 712 W/m² | - |
| 1777926303 | 25.56° C | 47% | 1005 hPa | 0 mm | - | 763 W/m² | - |
| 1777926002 | 25.56° C | 48% | 1004.8 hPa | 0 mm | - | 843 W/m² | - |
| 1777925702 | 25° C | 49% | 1004.9 hPa | 0 mm | - | 841 W/m² | - |
| 1777925402 | 23.89° C | 51% | 1005.3 hPa | 0 mm | - | 276 W/m² | - |
| 1777925101 | 25° C | 50% | 1005 hPa | 0 mm | - | 348 W/m² | - |
| 1777924802 | 24.44° C | 50% | 1005.2 hPa | 0 mm | - | 310 W/m² | - |
* Rain latest hour (hover to see other rain measurements)
** Current wind speed in m/s (hover to see current wind gust speed)